createdAt,value
2019-03-31T00:04:25.172Z,442.70
2019-03-31T00:09:31.872Z,430.23
2019-03-31T00:14:37.686Z,299.03
2019-03-31T00:19:43.866Z,412.30
2019-03-31T00:24:49.658Z,407.30
2019-03-31T00:29:55.464Z,472.90
2019-03-31T00:35:00.852Z,151.50
2019-03-31T00:40:06.927Z,123.13
2019-03-31T00:45:12.690Z,78.33
2019-03-31T00:50:18.483Z,50.25
2019-03-31T00:55:24.269Z,40.25
2019-03-31T01:00:48.743Z,35.78
2019-03-31T01:05:54.603Z,35.77
2019-03-31T01:11:00.638Z,32.05
2019-03-31T01:16:12.600Z,32.37
2019-03-31T01:21:20.299Z,30.23
2019-03-31T01:26:27.312Z,30.50
2019-03-31T01:31:33.497Z,29.00
2019-03-31T01:36:39.287Z,29.50
2019-03-31T01:41:45.063Z,44.70
2019-03-31T01:46:50.870Z,51.40
2019-03-31T01:51:56.850Z,125.90
2019-03-31T01:57:02.988Z,216.30
2019-03-31T02:02:10.422Z,154.30
2019-03-31T02:12:21.956Z,56.63
2019-03-31T02:17:27.618Z,42.97
2019-03-31T02:22:33.293Z,35.95
2019-03-31T02:27:38.847Z,30.52
2019-03-31T02:32:45.444Z,28.87
2019-03-31T02:37:51.032Z,28.77
2019-03-31T02:42:57.034Z,27.80
2019-03-31T02:48:02.737Z,26.43
2019-03-31T02:53:23.986Z,26.77
2019-03-31T03:03:35.295Z,24.85
2019-03-31T03:08:42.286Z,24.23
2019-03-31T03:13:47.849Z,24.40
2019-03-31T03:18:53.711Z,24.33
2019-03-31T03:23:59.283Z,21.87
2019-03-31T03:29:04.846Z,23.07
2019-03-31T03:34:10.732Z,22.60
2019-03-31T03:39:16.475Z,21.70
2019-03-31T03:49:27.590Z,22.60
2019-03-31T03:54:33.292Z,20.50
2019-03-31T03:59:38.813Z,19.97
2019-03-31T04:04:45.509Z,20.67
2019-03-31T04:09:51.273Z,21.68
2019-03-31T04:14:56.836Z,20.87
2019-03-31T04:20:03.520Z,19.45
2019-03-31T04:25:09.649Z,20.70
2019-03-31T04:30:15.032Z,19.07
2019-03-31T04:35:20.737Z,20.37
2019-03-31T04:40:26.787Z,17.73
2019-03-31T04:45:33.114Z,19.23
2019-03-31T04:50:38.730Z,18.50
2019-03-31T04:55:44.495Z,18.93
2019-03-31T05:05:55.628Z,17.83
2019-03-31T05:11:01.395Z,18.20
2019-03-31T05:16:07.070Z,17.13
2019-03-31T05:21:12.609Z,17.53
2019-03-31T05:26:18.288Z,17.50
2019-03-31T05:31:23.631Z,18.23
2019-03-31T05:36:29.296Z,18.67
2019-03-31T05:41:34.861Z,16.53
2019-03-31T05:46:40.733Z,17.20
2019-03-31T05:51:46.969Z,17.40
2019-03-31T05:56:52.664Z,16.70
2019-03-31T06:01:58.442Z,16.30
2019-03-31T06:07:04.100Z,16.10
2019-03-31T06:12:09.652Z,16.30
2019-03-31T06:22:20.958Z,16.93
2019-03-31T06:27:26.646Z,15.93
2019-03-31T06:32:32.047Z,16.50
2019-03-31T06:37:37.678Z,16.03
2019-03-31T06:42:43.341Z,15.70
2019-03-31T06:47:48.971Z,16.53
2019-03-31T06:52:54.656Z,16.60
2019-03-31T06:58:00.321Z,15.90
2019-03-31T07:03:05.958Z,16.30
2019-03-31T07:08:11.694Z,16.50
2019-03-31T07:13:17.412Z,16.33
2019-03-31T07:18:23.023Z,16.00
2019-03-31T07:23:28.537Z,16.45
2019-03-31T07:28:34.305Z,17.33
2019-03-31T07:33:39.965Z,16.32
2019-03-31T07:38:45.627Z,16.07
2019-03-31T07:43:51.317Z,16.13
2019-03-31T07:48:56.855Z,17.30
2019-03-31T07:54:03.444Z,16.67
2019-03-31T07:59:09.139Z,17.80
2019-03-31T08:04:14.766Z,18.80
2019-03-31T08:09:20.739Z,19.57
2019-03-31T08:14:26.818Z,19.80
2019-03-31T08:19:32.586Z,20.90
2019-03-31T08:24:44.485Z,21.45
2019-03-31T08:30:00.147Z,22.23
2019-03-31T08:34:57.707Z,21.03
2019-03-31T08:40:03.729Z,21.87
2019-03-31T08:45:09.523Z,22.17
2019-03-31T08:50:15.279Z,23.60
2019-03-31T15:00:14.543Z,142.25
2019-03-31T15:05:14.763Z,196.37
2019-03-31T15:10:20.838Z,241.05
2019-03-31T15:15:26.628Z,149.23
2019-03-31T15:20:34.171Z,102.87
2019-03-31T15:25:42.994Z,68.07
2019-03-31T15:30:55.248Z,74.80
2019-03-31T15:36:01.013Z,54.83
2019-03-31T15:46:37.738Z,82.63
2019-03-31T15:56:59.607Z,121.80
2019-03-31T16:02:07.867Z,91.90
2019-03-31T16:07:13.680Z,167.67
2019-03-31T16:12:19.532Z,150.82
2019-03-31T16:22:30.876Z,110.53
2019-03-31T16:27:36.809Z,195.00
2019-03-31T16:32:42.804Z,123.47
2019-03-31T16:37:51.644Z,74.93
2019-03-31T16:43:07.475Z,133.57
2019-03-31T16:53:18.769Z,102.73
2019-03-31T16:58:24.534Z,80.83
2019-03-31T17:08:35.802Z,47.13
2019-03-31T17:13:41.535Z,277.50
2019-03-31T17:18:48.913Z,93.83
2019-03-31T17:23:54.882Z,103.67
2019-03-31T17:29:00.680Z,117.13
2019-03-31T17:34:06.746Z,138.70
2019-03-31T17:39:12.818Z,180.40
2019-03-31T17:44:18.911Z,243.00
2019-03-31T17:49:24.810Z,70.73
2019-03-31T17:54:30.840Z,175.27
2019-03-31T17:59:36.495Z,43.50
2019-03-31T18:04:42.382Z,47.00
2019-03-31T18:09:48.149Z,121.20
2019-03-31T18:14:53.762Z,83.27
2019-03-31T18:20:00.731Z,193.65
2019-03-31T18:25:06.553Z,70.40
2019-03-31T18:30:12.636Z,102.07
2019-03-31T18:35:19.401Z,76.05
2019-03-31T18:40:35.011Z,31.80
2019-03-31T18:45:32.696Z,29.07
2019-03-31T18:50:38.476Z,49.23
2019-03-31T19:01:02.806Z,52.50
2019-03-31T19:11:36.853Z,61.90
2019-03-31T19:21:54.233Z,48.83
2019-03-31T19:27:02.403Z,212.80
2019-03-31T19:37:25.461Z,245.00
2019-03-31T19:42:36.840Z,255.60
2019-03-31T19:53:23.069Z,223.65
2019-03-31T19:58:46.369Z,272.80
2019-03-31T20:03:57.774Z,173.73
2019-03-31T20:14:17.795Z,160.75
2019-03-31T20:19:27.536Z,273.60
2019-03-31T20:24:50.185Z,201.43
2019-03-31T20:29:57.662Z,163.80
2019-03-31T20:35:11.178Z,150.30
2019-03-31T20:40:20.822Z,127.80
2019-03-31T20:50:31.879Z,106.20
2019-03-31T21:02:30.307Z,112.12
2019-03-31T21:07:35.643Z,105.77
2019-03-31T21:12:41.091Z,103.00
2019-03-31T21:17:46.544Z,96.25
2019-03-31T21:22:52.459Z,110.33
2019-03-31T21:27:57.802Z,114.70
2019-03-31T21:38:09.439Z,186.87
2019-03-31T21:43:14.809Z,170.43
2019-03-31T21:53:25.512Z,141.03
2019-03-31T21:58:30.968Z,104.43
2019-03-31T22:23:59.822Z,131.65
2019-03-31T22:34:11.037Z,186.95
2019-03-31T22:39:17.208Z,111.62
2019-03-31T22:44:22.738Z,101.07
2019-03-31T22:54:33.170Z,106.50
2019-03-31T22:59:39.462Z,191.90
2019-03-31T23:04:45.059Z,172.43
2019-03-31T23:09:50.902Z,176.22
2019-03-31T23:14:56.891Z,335.43
2019-03-31T23:30:14.209Z,190.67
2019-03-31T23:40:28.364Z,243.90
2019-03-31T23:55:47.980Z,50.90
